Terminal Aerodrome Forecast
Issued by NWS

Home | Current Version | Previous Version | Text Only | Print | Product List | Glossary On
Versions: 1 2 3 4 5 6 7 8 9 10 11 12 13 14
492
FTUS44 KTSA 202320
TAFMLC
TAF
KMLC 202320Z 2100/2124 16005KT P6SM FEW050
     FM210100 15003KT P6SM SCT250
     FM211500 19007KT P6SM SCT250
     FM211900 19008KT P6SM SCT050=

USA.gov is the U.S. government's official web portal to all federal, state and local government web resources and services.